OEBA/ABT METAR and TAF weather

Enter ICAO airport designator
Station Type Date Time Source
OEBA METAR 2019/12/11 12:00 UTC NOAA

OEBA 111200Z 17005KT 9999 FEW025CB SCT030 24/18 Q1019 NOSIG


Station Type Date Time Source
OEBA Decoded METAR 2019/12/11 12:00 UTC NOAA

Al Baha, Saudi Arabia (OEBA) 20-18N 041-38E 1662M
Dec 11, 2019 - 07:00 AM EST / 2019.12.11 1200 UTC
Wind: from the S (170 degrees) at 6 MPH (5 KT):0
Visibility: greater than 7 mile(s):0
Sky conditions: partly cloudy
Weather: Cumulonimbus clouds observed
Temperature: 75 F (24 C)
Dew Point: 64 F (18 C)
Relative Humidity: 69%
Pressure (altimeter): 30.09 in. Hg (1019 hPa)
ob: OEBA 111200Z 17005KT 9999 FEW025CB SCT030 24/18 Q1019 NOSIG
cycle: 12

Station Type Date Time Source
OEBA TAF 2019/12/11 12:03 UTC NOAA

TAF OEBA 111100Z 1112/1218 22015KT 9999 FEW030
TEMPO 1112/1116 FEW025CB SCT030
BECMG 1118/1120 VRB03KT
TEMPO 1200/1205 4000 BR

Example: see airport list